createdAt,value
2016-05-11T00:00:58.153Z,19.56
2016-05-11T00:01:58.139Z,19.55
2016-05-11T00:02:58.126Z,19.52
2016-05-11T00:03:58.114Z,19.52
2016-05-11T00:04:58.085Z,19.49
2016-05-11T00:05:58.072Z,19.55
2016-05-11T00:06:58.059Z,19.56
2016-05-11T00:07:58.046Z,19.55
2016-05-11T00:08:58.034Z,19.48
2016-05-11T00:09:58.005Z,19.52
2016-05-11T00:10:57.991Z,19.47
2016-05-11T00:11:57.980Z,19.54
2016-05-11T00:12:57.950Z,19.52
2016-05-11T00:13:57.952Z,19.52
2016-05-11T00:14:58.003Z,19.47
2016-05-11T00:15:57.911Z,19.48
2016-05-11T00:16:57.883Z,19.49
2016-05-11T00:17:57.729Z,19.51
2016-05-11T00:18:57.873Z,19.48
2016-05-11T00:19:57.844Z,19.49
2016-05-11T00:20:57.674Z,19.55
2016-05-11T00:21:57.802Z,19.48
2016-05-11T00:22:57.790Z,19.48
2016-05-11T00:23:57.776Z,19.45
2016-05-11T00:24:57.765Z,19.44
2016-05-11T00:25:57.735Z,19.55
2016-05-11T00:26:57.723Z,19.47
2016-05-11T00:27:57.710Z,19.45
2016-05-11T00:28:57.696Z,19.44
2016-05-11T00:29:57.528Z,19.45
2016-05-11T00:30:57.655Z,19.41
2016-05-11T00:31:57.642Z,19.55
2016-05-11T00:32:57.629Z,19.48
2016-05-11T00:33:57.601Z,19.39
2016-05-11T00:34:57.587Z,19.52
2016-05-11T00:35:57.575Z,19.48
2016-05-11T00:36:57.562Z,19.52
2016-05-11T00:37:57.549Z,19.51
2016-05-11T00:38:57.520Z,19.44
2016-05-11T00:39:57.508Z,19.33
2016-05-11T00:40:57.494Z,19.4
2016-05-11T00:41:57.466Z,19.47
2016-05-11T00:42:57.452Z,19.4
2016-05-11T00:43:57.441Z,19.47
2016-05-11T00:44:57.427Z,19.44
2016-05-11T00:45:57.242Z,19.45
2016-05-11T00:46:57.386Z,19.41
2016-05-11T00:47:57.216Z,19.47
2016-05-11T00:48:57.204Z,19.39
2016-05-11T00:49:57.347Z,19.39
2016-05-11T00:50:57.318Z,19.41
2016-05-11T00:51:57.149Z,19.33
2016-05-11T00:52:57.292Z,19.39
2016-05-11T00:53:57.279Z,19.39
2016-05-11T00:54:57.251Z,19.27
2016-05-11T00:55:57.238Z,19.44
2016-05-11T00:56:57.225Z,19.34
2016-05-11T00:57:57.212Z,19.39
2016-05-11T00:58:57.184Z,19.27
2016-05-11T00:59:57.170Z,19.34
2016-05-11T01:00:57.001Z,19.33
2016-05-11T01:01:57.128Z,19.29
2016-05-11T01:02:57.116Z,19.33
2016-05-11T01:03:57.103Z,19.27
2016-05-11T01:04:57.090Z,19.27
2016-05-11T01:05:57.078Z,19.29
2016-05-11T01:06:57.048Z,19.22
2016-05-11T01:07:57.036Z,19.26
2016-05-11T01:08:57.022Z,19.18
2016-05-11T01:09:56.994Z,19.21
2016-05-11T01:10:56.981Z,19.24
2016-05-11T01:11:56.969Z,19.18
2016-05-11T01:12:56.956Z,19.24
2016-05-11T01:13:56.927Z,19.22
2016-05-11T01:14:56.914Z,19.21
2016-05-11T01:15:56.901Z,19.18
2016-05-11T01:16:56.873Z,19.21
2016-05-11T01:17:56.859Z,19.15
2016-05-11T01:18:56.846Z,19.09
2016-05-11T01:19:56.896Z,19.08
2016-05-11T01:20:56.805Z,19.12
2016-05-11T01:21:56.808Z,19.07
2016-05-11T01:22:56.779Z,18.98
2016-05-11T01:23:56.766Z,18.99
2016-05-11T01:24:56.753Z,19.08
2016-05-11T01:25:56.725Z,19
2016-05-11T01:26:56.712Z,19
2016-05-11T01:27:56.699Z,18.98
2016-05-11T01:28:56.671Z,18.98
2016-05-11T01:29:56.501Z,18.9
2016-05-11T01:30:56.659Z,18.88
2016-05-11T01:31:56.631Z,18.96
2016-05-11T01:32:56.619Z,18.86
2016-05-11T01:33:56.590Z,18.88
2016-05-11T01:34:56.578Z,18.9
2016-05-11T01:35:56.408Z,18.84
2016-05-11T01:36:56.551Z,18.86
2016-05-11T01:37:56.522Z,18.8
2016-05-11T01:38:56.510Z,18.81
2016-05-11T01:39:56.481Z,18.73
2016-05-11T01:40:56.468Z,18.77
2016-05-11T01:41:56.300Z,18.73
2016-05-11T01:42:56.427Z,18.71
2016-05-11T01:43:56.414Z,18.74
2016-05-11T01:44:56.417Z,18.58
2016-05-11T01:45:56.388Z,18.63
2016-05-11T01:46:56.359Z,18.6
2016-05-11T01:47:56.393Z,18.58
2016-05-11T01:48:56.334Z,18.63
2016-05-11T01:49:56.321Z,18.62
2016-05-11T01:50:56.308Z,18.63
2016-05-11T01:51:56.294Z,18.55
2016-05-11T01:52:56.266Z,18.45
2016-05-11T01:53:56.254Z,18.59
2016-05-11T01:54:56.224Z,18.47
2016-05-11T01:55:56.071Z,18.5
2016-05-11T01:56:56.183Z,18.44
2016-05-11T01:57:56.171Z,18.41
2016-05-11T01:58:56.001Z,18.43
2016-05-11T01:59:55.988Z,18.44
2016-05-11T02:00:56.256Z,18.33
2016-05-11T02:01:56.103Z,18.33
2016-05-11T02:02:56.089Z,18.31
2016-05-11T02:03:56.062Z,18.35
2016-05-11T02:04:55.893Z,18.35
2016-05-11T02:05:55.879Z,18.35
2016-05-11T02:06:56.006Z,18.33
2016-05-11T02:07:55.994Z,18.29
2016-05-11T02:08:55.981Z,18.23
2016-05-11T02:09:55.967Z,18.22
2016-05-11T02:10:55.939Z,18.18
2016-05-11T02:11:55.927Z,18.16
2016-05-11T02:12:55.898Z,18.18
2016-05-11T02:13:55.885Z,18.11
2016-05-11T02:14:55.716Z,18.15
2016-05-11T02:15:55.859Z,18.16
2016-05-11T02:16:55.831Z,18.18
2016-05-11T02:17:55.818Z,18.04
2016-05-11T02:18:55.805Z,18.08
2016-05-11T02:19:55.792Z,18.04
2016-05-11T02:20:55.763Z,18.07
2016-05-11T02:21:55.750Z,17.98
2016-05-11T02:22:55.722Z,17.97
2016-05-11T02:23:55.709Z,17.97
2016-05-11T02:24:55.540Z,17.94
2016-05-11T02:25:55.667Z,17.95
2016-05-11T02:26:55.654Z,17.97
2016-05-11T02:27:55.641Z,17.85
2016-05-11T02:28:55.613Z,17.9
2016-05-11T02:29:55.600Z,17.82
2016-05-11T02:30:55.603Z,17.86
2016-05-11T02:31:55.559Z,17.8
2016-05-11T02:32:55.546Z,17.82
2016-05-11T02:33:55.532Z,17.79
2016-05-11T02:34:55.504Z,17.8
2016-05-11T02:35:55.491Z,17.68
2016-05-11T02:36:55.322Z,17.72
2016-05-11T02:37:55.450Z,17.71
2016-05-11T02:38:55.468Z,17.74
2016-05-11T02:39:55.268Z,17.71
2016-05-11T02:40:55.395Z,17.72
2016-05-11T02:41:55.414Z,17.7
2016-05-11T02:42:55.369Z,17.67
2016-05-11T02:43:55.341Z,17.68
2016-05-11T02:44:55.327Z,17.63
2016-05-11T02:45:55.331Z,17.63
2016-05-11T02:46:55.286Z,17.68
2016-05-11T02:47:55.274Z,17.59
2016-05-11T02:48:55.245Z,17.56
2016-05-11T02:49:55.232Z,17.56
2016-05-11T02:50:55.219Z,17.49
2016-05-11T02:51:55.191Z,17.54
2016-05-11T02:52:55.021Z,17.63
2016-05-11T02:53:55.165Z,17.48
2016-05-11T02:54:55.136Z,17.51
2016-05-11T02:55:55.123Z,17.52
2016-05-11T02:56:55.110Z,17.44
2016-05-11T02:57:55.081Z,17.42
2016-05-11T02:58:55.069Z,17.48
2016-05-11T02:59:55.057Z,17.45
2016-05-11T03:00:55.059Z,17.42
2016-05-11T03:01:54.857Z,17.44
2016-05-11T03:02:54.985Z,17.46
2016-05-11T03:03:54.972Z,17.46
2016-05-11T03:04:54.959Z,17.38
2016-05-11T03:05:54.932Z,17.38
2016-05-11T03:06:54.918Z,17.42
2016-05-11T03:07:54.906Z,17.44
2016-05-11T03:08:54.892Z,17.45
2016-05-11T03:09:54.864Z,17.45
2016-05-11T03:10:54.850Z,17.45
2016-05-11T03:11:54.822Z,17.42
2016-05-11T03:12:54.809Z,17.38
2016-05-11T03:13:54.781Z,17.39
2016-05-11T03:14:54.767Z,17.41
2016-05-11T03:15:54.755Z,17.33
2016-05-11T03:16:54.727Z,17.39
2016-05-11T03:17:54.714Z,17.36
2016-05-11T03:18:54.700Z,17.31
2016-05-11T03:19:54.672Z,17.36
2016-05-11T03:20:54.658Z,17.31
2016-05-11T03:21:54.646Z,17.31
2016-05-11T03:22:54.618Z,17.33
2016-05-11T03:23:54.604Z,17.31
2016-05-11T03:24:54.592Z,17.3
2016-05-11T03:25:54.563Z,17.33
2016-05-11T03:26:54.550Z,17.26
2016-05-11T03:27:54.522Z,17.33
2016-05-11T03:28:54.540Z,17.29
2016-05-11T03:29:54.495Z,17.27
2016-05-11T03:30:54.489Z,17.26
2016-05-11T03:31:54.500Z,17.24
2016-05-11T03:32:54.526Z,17.22
2016-05-11T03:33:54.538Z,17.16
2016-05-11T03:34:54.565Z,17.22
2016-05-11T03:35:54.587Z,17.19
2016-05-11T03:36:54.573Z,17.15
2016-05-11T03:37:54.590Z,17.16
2016-05-11T03:38:54.560Z,17.2
2016-05-11T03:39:54.561Z,17.19
2016-05-11T03:40:54.404Z,17.15
2016-05-11T03:41:54.537Z,17.15
2016-05-11T03:42:54.529Z,17.19
2016-05-11T03:43:54.505Z,17.2
2016-05-11T03:44:54.498Z,17.14
2016-05-11T03:45:54.489Z,17.15
2016-05-11T03:46:54.307Z,17.19
2016-05-11T03:47:54.451Z,17.16
2016-05-11T03:48:54.440Z,17.11
2016-05-11T03:49:54.429Z,17.14
2016-05-11T03:50:54.403Z,17.06
2016-05-11T03:51:54.389Z,17.11
2016-05-11T03:52:54.362Z,17.16
2016-05-11T03:53:54.349Z,17.2
2016-05-11T03:54:54.337Z,17.08
2016-05-11T03:55:54.308Z,17.16
2016-05-11T03:56:54.296Z,17.19
2016-05-11T03:57:54.268Z,17.15
2016-05-11T03:58:54.255Z,17.2
2016-05-11T03:59:54.227Z,17.2
2016-05-11T04:00:54.246Z,17.19
2016-05-11T04:01:54.201Z,17.22
2016-05-11T04:02:54.189Z,17.15
2016-05-11T04:03:54.176Z,17.16
2016-05-11T04:04:53.991Z,17.23
2016-05-11T04:05:54.118Z,17.2
2016-05-11T04:06:54.105Z,17.27
2016-05-11T04:07:54.093Z,17.27
2016-05-11T04:08:54.064Z,17.23
2016-05-11T04:09:54.052Z,17.23
2016-05-11T04:10:54.038Z,17.26
2016-05-11T04:11:54.009Z,17.24
2016-05-11T04:12:53.996Z,17.27
2016-05-11T04:13:53.969Z,17.26
2016-05-11T04:14:53.955Z,17.3
2016-05-11T04:15:53.943Z,17.31
2016-05-11T04:16:53.929Z,17.31
2016-05-11T04:17:53.932Z,17.33
2016-05-11T04:18:53.904Z,17.33
2016-05-11T04:19:53.859Z,17.39
2016-05-11T04:20:53.846Z,17.36
2016-05-11T04:21:53.834Z,17.36
2016-05-11T04:22:53.820Z,17.38
2016-05-11T04:23:53.792Z,17.42
2016-05-11T04:24:53.779Z,17.38
2016-05-11T04:25:53.751Z,17.44
2016-05-11T04:26:53.738Z,17.44
2016-05-11T04:27:53.709Z,17.44
2016-05-11T04:28:53.540Z,17.44
2016-05-11T04:29:53.683Z,17.49
2016-05-11T04:30:53.670Z,17.48
2016-05-11T04:31:53.641Z,17.48
2016-05-11T04:32:53.629Z,17.49
2016-05-11T04:33:53.616Z,17.48
2016-05-11T04:34:53.586Z,17.57
2016-05-11T04:35:53.417Z,17.57
2016-05-11T04:36:53.545Z,17.52
2016-05-11T04:37:53.532Z,17.49
2016-05-11T04:38:53.364Z,17.57
2016-05-11T04:39:53.491Z,17.49
2016-05-11T04:40:53.478Z,17.49
2016-05-11T04:41:53.466Z,17.59
2016-05-11T04:42:53.436Z,17.57
2016-05-11T04:43:53.424Z,17.59
2016-05-11T04:44:53.411Z,17.65
2016-05-11T04:45:53.241Z,17.67
2016-05-11T04:46:53.385Z,17.72
2016-05-11T04:47:53.357Z,17.67
2016-05-11T04:48:53.327Z,17.68
2016-05-11T04:49:53.315Z,17.68
2016-05-11T04:50:53.287Z,17.68
2016-05-11T04:51:53.289Z,17.65
2016-05-11T04:52:53.260Z,17.65
2016-05-11T04:53:53.248Z,17.71
2016-05-11T04:54:53.250Z,17.76
2016-05-11T04:55:53.207Z,17.74
2016-05-11T04:56:53.192Z,17.67
2016-05-11T04:57:53.165Z,17.7
2016-05-11T04:58:53.167Z,17.65
2016-05-11T04:59:53.154Z,17.7
2016-05-11T05:00:52.969Z,17.67
2016-05-11T05:01:53.098Z,17.76
2016-05-11T05:02:53.084Z,17.72
2016-05-11T05:03:53.072Z,17.72
2016-05-11T05:04:53.043Z,17.78
2016-05-11T05:05:53.030Z,17.79
2016-05-11T05:06:52.861Z,17.78
2016-05-11T05:07:53.003Z,17.7
2016-05-11T05:08:52.835Z,17.78
2016-05-11T05:09:52.963Z,17.76
2016-05-11T05:10:52.934Z,17.78
2016-05-11T05:11:52.921Z,17.74
2016-05-11T05:12:52.908Z,17.83
2016-05-11T05:13:52.880Z,17.79
2016-05-11T05:14:52.882Z,17.8
2016-05-11T05:15:53.416Z,17.78
2016-05-11T05:16:52.825Z,17.74
2016-05-11T05:17:52.812Z,17.78
2016-05-11T05:18:52.908Z,17.74
2016-05-11T05:19:52.786Z,17.74
2016-05-11T05:20:52.757Z,17.7
2016-05-11T05:21:52.745Z,17.76
2016-05-11T05:22:52.732Z,17.82
2016-05-11T05:23:52.734Z,17.78
2016-05-11T05:24:52.691Z,17.83
2016-05-11T05:25:52.676Z,17.82
2016-05-11T05:26:52.493Z,17.86
2016-05-11T05:27:52.636Z,17.72
2016-05-11T05:28:52.623Z,17.86
2016-05-11T05:29:52.437Z,17.76
2016-05-11T05:30:52.582Z,17.8
2016-05-11T05:31:52.568Z,17.83
2016-05-11T05:32:52.556Z,17.78
2016-05-11T05:33:52.528Z,17.89
2016-05-11T05:34:52.514Z,17.94
2016-05-11T05:35:52.501Z,17.87
2016-05-11T05:36:52.472Z,17.92
2016-05-11T05:37:52.459Z,17.95
2016-05-11T05:38:52.291Z,17.98
2016-05-11T05:39:52.434Z,17.92
2016-05-11T05:40:52.405Z,18.07
2016-05-11T05:41:52.392Z,18.08
2016-05-11T05:42:52.380Z,18.16
2016-05-11T05:43:52.350Z,18.16
2016-05-11T05:44:52.432Z,18.2
2016-05-11T05:45:52.185Z,18.28
2016-05-11T05:46:52.296Z,18.37
2016-05-11T05:47:52.283Z,18.5
2016-05-11T05:48:52.271Z,18.44
2016-05-11T05:49:52.258Z,18.58
2016-05-11T05:50:52.244Z,18.63
2016-05-11T05:51:52.216Z,18.63
2016-05-11T05:52:52.203Z,18.74
2016-05-11T05:53:52.190Z,18.74
2016-05-11T05:54:52.177Z,18.86
2016-05-11T05:55:52.164Z,18.86
2016-05-11T05:56:51.979Z,18.99
2016-05-11T05:57:52.138Z,18.98
2016-05-11T05:58:52.109Z,19.12
2016-05-11T05:59:52.097Z,19.16
2016-05-11T06:00:52.553Z,19.18
2016-05-11T06:01:52.070Z,19.29
2016-05-11T06:02:52.043Z,19.39
2016-05-11T06:03:52.029Z,19.49
2016-05-11T06:04:52.017Z,19.47
2016-05-11T06:05:52.003Z,19.52
2016-05-11T06:06:51.991Z,19.58
2016-05-11T06:07:51.978Z,19.7
2016-05-11T06:08:51.964Z,19.76
2016-05-11T06:09:51.953Z,19.85
2016-05-11T06:10:51.923Z,19.91
2016-05-11T06:11:51.925Z,20
2016-05-11T06:12:51.898Z,20.04
2016-05-11T06:13:51.900Z,20.21
2016-05-11T06:14:51.872Z,20.26
2016-05-11T06:15:51.702Z,20.32
2016-05-11T06:16:51.846Z,20.48
2016-05-11T06:17:51.849Z,20.6
2016-05-11T06:18:51.819Z,20.58
2016-05-11T06:19:53.917Z,20.69
2016-05-11T06:20:57.371Z,20.8
2016-05-11T06:21:55.624Z,20.88
2016-05-11T06:22:55.691Z,20.99
2016-05-11T06:23:54.755Z,21.11
2016-05-11T06:24:59.273Z,21.22
2016-05-11T06:25:54.667Z,21.29
2016-05-11T06:26:54.748Z,21.39
2016-05-11T06:27:53.235Z,21.39
2016-05-11T06:28:51.551Z,21.51
2016-05-11T06:29:51.678Z,21.61
2016-05-11T06:30:51.681Z,21.61
2016-05-11T06:31:51.667Z,21.67
2016-05-11T06:32:51.655Z,21.7
2016-05-11T06:33:51.642Z,21.73
2016-05-11T06:34:51.473Z,21.72
2016-05-11T06:35:51.616Z,21.79
2016-05-11T06:36:51.603Z,21.76
2016-05-11T06:37:51.590Z,21.89
2016-05-11T06:38:51.577Z,21.89
2016-05-11T06:39:51.580Z,21.96
2016-05-11T06:40:51.551Z,22.06
2016-05-11T06:41:51.538Z,22.04
2016-05-11T06:42:51.541Z,22.08
2016-05-11T06:43:51.527Z,22.11
2016-05-11T06:44:51.514Z,22.11
2016-05-11T06:45:51.659Z,22.14
2016-05-11T06:46:51.489Z,22.11
2016-05-11T06:47:51.477Z,22.25
2016-05-11T06:48:51.307Z,22.28
2016-05-11T06:49:51.450Z,22.28
2016-05-11T06:50:51.438Z,22.35
2016-05-11T06:51:51.424Z,22.3
2016-05-11T06:52:51.411Z,22.41
2016-05-11T06:53:51.399Z,22.36
2016-05-11T06:54:51.385Z,22.41
2016-05-11T06:55:51.373Z,22.38
2016-05-11T06:56:51.376Z,22.51
2016-05-11T06:57:51.362Z,22.55
2016-05-11T06:58:51.349Z,22.55
2016-05-11T06:59:51.337Z,22.7
2016-05-11T07:00:51.887Z,22.73
2016-05-11T07:01:51.311Z,22.81
2016-05-11T07:02:51.297Z,22.81
2016-05-11T07:03:51.285Z,22.87
2016-05-11T07:04:51.288Z,22.88
2016-05-11T07:05:51.275Z,22.98
2016-05-11T07:06:51.262Z,23.03
2016-05-11T07:07:51.248Z,23.03
2016-05-11T07:08:51.236Z,23.08
2016-05-11T07:09:51.223Z,23.1
2016-05-11T07:10:51.225Z,23.18
2016-05-11T07:11:51.212Z,23.31
2016-05-11T07:12:51.199Z,23.44
2016-05-11T07:13:51.187Z,23.51
2016-05-11T07:14:51.189Z,23.59
2016-05-11T07:15:51.630Z,23.58
2016-05-11T07:16:51.163Z,23.66
2016-05-11T07:17:51.150Z,23.74
2016-05-11T07:18:51.153Z,23.83
2016-05-11T07:19:51.140Z,24.01
2016-05-11T07:20:51.127Z,24.21
2016-05-11T07:21:51.114Z,24.3
2016-05-11T07:22:51.116Z,24.39
2016-05-11T07:23:51.104Z,24.51
2016-05-11T07:24:51.091Z,24.55
2016-05-11T07:25:50.937Z,24.55
2016-05-11T07:26:51.082Z,24.63
2016-05-11T07:27:51.069Z,24.77
2016-05-11T07:28:51.071Z,24.74
2016-05-11T07:29:51.057Z,24.86
2016-05-11T07:30:50.888Z,24.81
2016-05-11T07:31:51.032Z,24.86
2016-05-11T07:32:51.034Z,24.89
2016-05-11T07:33:51.037Z,25.03
2016-05-11T07:34:51.024Z,25.01
2016-05-11T07:35:50.856Z,25.08
2016-05-11T07:36:50.998Z,25.1
2016-05-11T07:37:51.001Z,25.17
2016-05-11T07:38:50.989Z,25.18
2016-05-11T07:39:50.992Z,25.23
2016-05-11T07:40:50.978Z,25.43
2016-05-11T07:41:50.809Z,25.46
2016-05-11T07:42:50.953Z,25.63
2016-05-11T07:43:50.939Z,25.68
2016-05-11T07:44:50.942Z,25.62
2016-05-11T07:45:50.976Z,25.58
2016-05-11T07:46:50.932Z,25.59
2016-05-11T07:47:50.919Z,25.53
2016-05-11T07:48:50.906Z,25.58
2016-05-11T07:49:50.908Z,25.66
2016-05-11T07:50:50.896Z,25.8
2016-05-11T07:51:50.882Z,25.81
2016-05-11T07:52:50.916Z,25.87
2016-05-11T07:53:50.873Z,25.96
2016-05-11T07:54:50.875Z,26.05
2016-05-11T07:55:50.863Z,26.1
2016-05-11T07:56:50.865Z,26.18
2016-05-11T07:57:50.851Z,26.22
2016-05-11T07:58:50.839Z,26.25
2016-05-11T07:59:50.842Z,26.31
2016-05-11T08:00:50.860Z,26.19
2016-05-11T08:01:50.832Z,26.28
2016-05-11T08:02:50.818Z,26.22
2016-05-11T08:03:50.821Z,26.37
2016-05-11T08:04:50.809Z,26.43
2016-05-11T08:05:50.812Z,26.55
2016-05-11T08:06:50.814Z,26.58
2016-05-11T08:07:50.785Z,26.65
2016-05-11T08:08:50.631Z,26.66
2016-05-11T08:09:50.775Z,26.66
2016-05-11T08:10:50.778Z,26.74
2016-05-11T08:11:50.765Z,26.85
2016-05-11T08:12:50.767Z,26.85
2016-05-11T08:13:50.801Z,26.93
2016-05-11T08:14:50.757Z,27.05
2016-05-11T08:15:50.759Z,27.11
2016-05-11T08:16:50.747Z,27.25
2016-05-11T08:17:50.734Z,27.26
2016-05-11T08:18:50.736Z,27.35
2016-05-11T08:19:50.724Z,27.33
2016-05-11T08:20:50.711Z,27.39
2016-05-11T08:21:50.713Z,27.59
2016-05-11T08:22:50.716Z,27.65
2016-05-11T08:23:50.719Z,27.71
2016-05-11T08:24:50.769Z,27.8
2016-05-11T08:25:50.708Z,27.89
2016-05-11T08:26:50.696Z,28
2016-05-11T08:27:50.699Z,28.14
2016-05-11T08:28:50.685Z,28.22
2016-05-11T08:29:50.688Z,28.22
2016-05-11T08:30:51.191Z,28.33
2016-05-11T08:31:50.693Z,28.42
2016-05-11T08:32:50.665Z,28.6
2016-05-11T08:33:50.668Z,28.44
2016-05-11T08:34:50.685Z,28.47
2016-05-11T08:35:50.517Z,28.59
2016-05-11T08:36:50.707Z,28.66
2016-05-11T08:37:50.709Z,28.67
2016-05-11T08:38:50.493Z,28.79
2016-05-11T08:39:50.496Z,28.93
2016-05-11T08:40:50.640Z,29.01
2016-05-11T08:41:50.642Z,29.19
2016-05-11T08:42:50.645Z,29.27
2016-05-11T08:43:50.492Z,29.23
2016-05-11T08:44:50.634Z,29.16
2016-05-11T08:45:50.887Z,29.16
2016-05-11T08:46:50.625Z,29.13
2016-05-11T08:47:50.627Z,29.14
2016-05-11T08:48:50.631Z,29.16
2016-05-11T08:49:50.617Z,29.14
2016-05-11T08:50:50.463Z,29.14
2016-05-11T08:51:50.622Z,29.22
2016-05-11T08:52:50.609Z,29.36
2016-05-11T08:53:50.643Z,29.44
2016-05-11T08:54:50.614Z,29.51
2016-05-11T08:55:50.633Z,29.6
2016-05-11T08:56:50.605Z,29.47
2016-05-11T08:57:50.607Z,29.45
2016-05-11T08:58:50.594Z,29.45
2016-05-11T08:59:50.597Z,29.63
2016-05-11T09:00:50.615Z,29.65
2016-05-11T09:01:50.649Z,29.68
2016-05-11T09:02:50.590Z,29.61
2016-05-11T09:03:50.452Z,29.61
2016-05-11T09:04:50.610Z,29.65
2016-05-11T09:05:50.643Z,29.68
2016-05-11T09:06:50.585Z,29.71
2016-05-11T09:07:50.587Z,29.71
2016-05-11T09:08:50.495Z,29.76
2016-05-11T09:09:50.577Z,29.73
2016-05-11T09:10:50.579Z,29.69
2016-05-11T09:11:50.426Z,29.53
2016-05-11T09:12:50.413Z,29.68
2016-05-11T09:13:50.572Z,29.71
2016-05-11T09:14:50.684Z,29.86
2016-05-11T09:15:53.545Z,29.9
2016-05-11T09:16:50.845Z,30
2016-05-11T09:17:50.755Z,29.97
2016-05-11T09:18:50.569Z,30.09
2016-05-11T09:19:50.573Z,30.06
2016-05-11T09:20:50.575Z,29.87
2016-05-11T09:21:50.562Z,29.87
2016-05-11T09:22:50.565Z,29.9
2016-05-11T09:23:50.567Z,30.02
2016-05-11T09:24:50.399Z,29.98
2016-05-11T09:25:50.558Z,29.98
2016-05-11T09:26:50.560Z,29.98
2016-05-11T09:27:50.563Z,30.16
2016-05-11T09:28:50.566Z,30.19
2016-05-11T09:29:50.568Z,30.23
2016-05-11T09:30:50.555Z,30.43
2016-05-11T09:31:50.558Z,30.35
2016-05-11T09:32:50.560Z,30.39
2016-05-11T09:33:50.548Z,30.44
2016-05-11T09:34:50.551Z,30.55
2016-05-11T09:35:50.537Z,30.53
2016-05-11T09:36:50.540Z,30.54
2016-05-11T09:37:50.542Z,30.61
2016-05-11T09:38:50.546Z,30.57
2016-05-11T09:39:50.549Z,30.59
2016-05-11T09:40:50.535Z,30.61
2016-05-11T09:41:50.538Z,30.72
2016-05-11T09:42:50.384Z,30.9
2016-05-11T09:43:50.387Z,30.94
2016-05-11T09:44:50.530Z,30.9
2016-05-11T09:45:50.548Z,30.78
2016-05-11T09:46:50.536Z,30.57
2016-05-11T09:47:50.851Z,30.62
2016-05-11T09:48:50.541Z,30.68
2016-05-11T09:49:50.544Z,30.63
2016-05-11T09:50:50.531Z,30.65
2016-05-11T09:51:50.534Z,30.63
2016-05-11T09:52:50.536Z,30.48
2016-05-11T09:53:50.539Z,30.46
2016-05-11T09:54:50.525Z,30.39
2016-05-11T09:55:50.528Z,30.47
2016-05-11T09:56:50.547Z,30.54
2016-05-11T09:57:50.534Z,30.54
2016-05-11T09:58:50.536Z,30.55
2016-05-11T09:59:50.524Z,30.5
2016-05-11T10:00:50.526Z,30.54
2016-05-11T10:01:50.529Z,30.51
2016-05-11T10:02:50.579Z,30.53
2016-05-11T10:03:50.378Z,30.62
2016-05-11T10:04:50.522Z,30.35
2016-05-11T10:05:50.524Z,30.35
2016-05-11T10:06:50.527Z,30.39
2016-05-11T10:07:50.530Z,30.31
2016-05-11T10:08:50.532Z,30.39
2016-05-11T10:09:50.535Z,30.44
2016-05-11T10:10:50.523Z,30.43
2016-05-11T10:11:50.525Z,30.39
2016-05-11T10:12:50.371Z,30.16
2016-05-11T10:13:50.531Z,30.13
2016-05-11T10:14:50.517Z,30.12
2016-05-11T10:15:50.582Z,30.21
2016-05-11T10:16:50.507Z,30.15
2016-05-11T10:17:50.509Z,30.27
2016-05-11T10:18:50.513Z,30.32
2016-05-11T10:19:50.515Z,30.28
2016-05-11T10:20:50.503Z,30.16
2016-05-11T10:21:50.505Z,30.16
2016-05-11T10:22:50.538Z,30.19
2016-05-11T10:23:50.620Z,30.13
2016-05-11T10:24:50.528Z,30.28
2016-05-11T10:25:50.563Z,30.25
2016-05-11T10:26:50.519Z,30.27
2016-05-11T10:27:50.521Z,30.32
2016-05-11T10:28:50.352Z,30.32
2016-05-11T10:29:50.511Z,30.27
2016-05-11T10:30:50.779Z,30.1
2016-05-11T10:32:46.908Z,29.94
2016-05-11T10:32:58.519Z,29.98
2016-05-11T10:33:58.522Z,29.91
2016-05-11T10:34:58.493Z,29.79
2016-05-11T10:35:58.497Z,29.71
2016-05-11T10:36:58.482Z,29.71
2016-05-11T10:37:58.471Z,29.65
2016-05-11T10:38:58.394Z,29.65
2016-05-11T10:39:58.585Z,29.73
2016-05-11T10:40:58.463Z,29.79
2016-05-11T10:41:58.466Z,29.75
2016-05-11T10:42:58.468Z,29.78
2016-05-11T10:43:58.470Z,29.94
2016-05-11T10:44:58.457Z,30
2016-05-11T10:45:58.460Z,30.15
2016-05-11T10:46:58.306Z,30.24
2016-05-11T10:47:58.465Z,30.28
2016-05-11T10:49:00.718Z,30.37
2016-05-11T10:49:58.487Z,30.46
2016-05-11T10:50:58.536Z,30.53
2016-05-11T10:51:58.492Z,30.61
2016-05-11T10:52:58.511Z,30.68
2016-05-11T10:53:59.889Z,30.78
2016-05-11T10:54:58.437Z,30.8
2016-05-11T10:55:58.440Z,30.63
2016-05-11T10:56:58.442Z,30.66
2016-05-11T10:57:58.430Z,30.73
2016-05-11T10:58:58.558Z,30.65
2016-05-11T10:59:58.436Z,30.62
2016-05-11T11:00:58.438Z,30.48
2016-05-11T11:01:58.441Z,30.35
2016-05-11T11:02:58.428Z,30.4
2016-05-11T11:03:58.431Z,30.43
2016-05-11T11:04:58.449Z,30.47
2016-05-11T11:05:58.436Z,30.55
2016-05-11T11:06:58.455Z,30.37
2016-05-11T11:07:58.426Z,30.24
2016-05-11T11:08:59.960Z,30.28
2016-05-11T11:09:58.431Z,30.19
2016-05-11T11:10:58.435Z,30.21
2016-05-11T11:11:58.421Z,30.24
2016-05-11T11:12:58.423Z,30.3
2016-05-11T11:13:58.943Z,30.31
2016-05-11T11:14:58.429Z,30.4
2016-05-11T11:15:58.603Z,30.43
2016-05-11T11:16:58.418Z,30.34
2016-05-11T11:17:58.422Z,30.4
2016-05-11T11:18:59.784Z,30.61
2016-05-11T11:19:58.411Z,30.62
2016-05-11T11:20:58.430Z,30.78
2016-05-11T11:21:58.432Z,30.83
2016-05-11T11:22:58.435Z,30.78
2016-05-11T11:23:59.875Z,30.61
2016-05-11T11:24:58.409Z,30.63
2016-05-11T11:25:58.412Z,30.47
2016-05-11T11:26:58.414Z,30.51
2016-05-11T11:27:58.417Z,30.44
2016-05-11T11:28:58.998Z,30.62
2016-05-11T11:29:58.422Z,30.62
2016-05-11T11:30:58.550Z,30.77
2016-05-11T11:31:58.412Z,30.66
2016-05-11T11:32:58.415Z,30.63
2016-05-11T11:33:59.152Z,30.63
2016-05-11T11:34:58.405Z,30.57
2016-05-11T11:35:58.251Z,30.54
2016-05-11T11:36:58.410Z,30.44
2016-05-11T11:37:58.413Z,30.5
2016-05-11T11:39:00.149Z,30.53
2016-05-11T11:39:58.402Z,30.65
2016-05-11T11:40:58.405Z,30.63
2016-05-11T11:41:58.408Z,30.63
2016-05-11T11:42:58.426Z,30.73
2016-05-11T11:43:59.601Z,30.78
2016-05-11T11:44:58.401Z,30.72
2016-05-11T11:45:58.638Z,30.87
2016-05-11T11:46:58.406Z,31.03
2016-05-11T11:47:58.252Z,30.85
2016-05-11T11:48:58.458Z,30.59
2016-05-11T11:49:58.398Z,30.53
2016-05-11T11:50:58.257Z,30.51
2016-05-11T11:51:58.388Z,30.47
2016-05-11T11:52:58.406Z,30.4
2016-05-11T11:53:59.518Z,30.32
2016-05-11T11:54:58.395Z,30.31
2016-05-11T11:55:58.399Z,30.46
2016-05-11T11:56:58.589Z,30.35
2016-05-11T11:57:58.401Z,30.3
2016-05-11T11:58:59.548Z,30.24
2016-05-11T12:00:00.832Z,30.34
2016-05-11T12:00:58.944Z,30.47
2016-05-11T12:01:58.397Z,30.44
2016-05-11T12:02:58.414Z,30.44
2016-05-11T12:03:58.386Z,30.35
2016-05-11T12:04:58.389Z,30.43
2016-05-11T12:05:58.391Z,30.53
2016-05-11T12:06:58.378Z,30.51
2016-05-11T12:07:58.397Z,30.48
2016-05-11T12:08:58.384Z,30.61
2016-05-11T12:09:58.386Z,30.62
2016-05-11T12:10:58.389Z,30.72
2016-05-11T12:11:58.392Z,30.87
2016-05-11T12:12:58.630Z,30.84
2016-05-11T12:13:58.226Z,30.75
2016-05-11T12:14:58.385Z,30.62
2016-05-11T12:15:58.434Z,30.65
2016-05-11T12:16:58.515Z,30.62
2016-05-11T12:17:58.377Z,30.75
2016-05-11T12:18:58.379Z,30.88
2016-05-11T12:19:58.382Z,30.73
2016-05-11T12:20:58.229Z,30.63
2016-05-11T12:21:58.388Z,30.51
2016-05-11T12:22:58.390Z,30.55
2016-05-11T12:23:58.393Z,30.53
2016-05-11T12:24:58.396Z,30.5
2016-05-11T12:25:58.383Z,30.48
2016-05-11T12:26:58.229Z,30.5
2016-05-11T12:27:58.248Z,30.43
2016-05-11T12:28:58.392Z,30.39
2016-05-11T12:29:58.409Z,30.43
2016-05-11T12:30:58.381Z,30.46
2016-05-11T12:31:58.399Z,30.37
2016-05-11T12:32:58.386Z,30.18
2016-05-11T12:33:58.389Z,30.16
2016-05-11T12:34:58.391Z,30.16
2016-05-11T12:35:58.378Z,30.3
2016-05-11T12:36:58.381Z,30.35
2016-05-11T12:37:58.409Z,30.32
2016-05-11T12:38:58.475Z,30.39
2016-05-11T12:39:58.509Z,30.39
2016-05-11T12:40:58.544Z,30.55
2016-05-11T12:41:58.609Z,30.68
2016-05-11T12:42:58.627Z,30.62
2016-05-11T12:43:58.787Z,30.78
2016-05-11T12:44:58.666Z,30.83
2016-05-11T12:45:58.686Z,30.92
2016-05-11T12:46:58.690Z,30.9
2016-05-11T12:47:58.703Z,30.81
2016-05-11T12:48:58.712Z,30.9
2016-05-11T12:49:58.830Z,30.81
2016-05-11T12:50:58.714Z,30.8
2016-05-11T12:51:58.739Z,30.78
2016-05-11T12:52:58.745Z,30.8
2016-05-11T12:53:58.766Z,30.96
2016-05-11T12:54:58.738Z,31.07
2016-05-11T12:55:58.587Z,31.15